Aviation Digital Data Service (ADDS)

Output produced by METARs form (0237 UTC 29 July 2015)
found at http://aviationweather.gov/adds/metars/
 
KPQI 282337Z 2900/2924 33005KT P6SM FEW080 AMD LTD TO CLD VIS AND WIND